Time;durP1;ratioP1;P1;durP2;ratioP2;P2;SDS_P1;SDS_P2;PMS_P1;PMS_P2;Temp;Humidity;BMP_temperature;BMP_pressure;BME280_temperature;BME280_humidity;BME280_pressure;Samples;Min_cycle;Max_cycle;Signal;HPM_P1;HPM_P2
2023/08/09 00:01:40;;;;;;;2.60;2.40;;;13.70;99.90;;;;;;5134789;27;20782;-66
2023/08/09 00:04:07;;;;;;;3.30;2.43;;;13.70;99.90;;;;;;5135376;27;20463;-66
2023/08/09 00:06:34;;;;;;;3.30;2.00;;;13.70;99.90;;;;;;5136265;27;20439;-65
2023/08/09 00:09:01;;;;;;;3.93;2.27;;;13.70;99.90;;;;;;5135890;27;20437;-64
2023/08/09 00:11:29;;;;;;;3.90;2.10;;;13.70;99.90;;;;;;5135174;27;20452;-65
2023/08/09 00:13:56;;;;;;;2.13;1.80;;;13.70;99.90;;;;;;5134381;27;20460;-65
2023/08/09 00:16:22;;;;;;;2.50;1.77;;;13.70;99.90;;;;;;5134224;28;20483;-65
2023/08/09 00:18:49;;;;;;;2.70;1.77;;;13.70;99.90;;;;;;5134254;28;20437;-66
2023/08/09 00:21:16;;;;;;;2.80;1.73;;;13.60;99.90;;;;;;5133790;28;20933;-66
2023/08/09 00:23:43;;;;;;;1.70;1.60;;;13.60;99.90;;;;;;5134107;28;20525;-65
2023/08/09 00:26:10;;;;;;;3.00;1.70;;;13.60;99.90;;;;;;5135009;28;20434;-66
2023/08/09 00:28:38;;;;;;;1.83;1.50;;;13.60;99.90;;;;;;5137387;27;20882;-64
2023/08/09 00:31:05;;;;;;;3.13;1.40;;;13.60;99.90;;;;;;5137807;27;20949;-65
2023/08/09 00:33:32;;;;;;;1.60;1.50;;;13.60;99.90;;;;;;5138157;27;20460;-65
2023/08/09 00:35:59;;;;;;;2.17;1.47;;;13.60;99.90;;;;;;5137842;27;20448;-64
2023/08/09 00:38:26;;;;;;;4.17;1.63;;;13.60;99.90;;;;;;5138086;27;20440;-65
2023/08/09 00:40:52;;;;;;;1.93;1.30;;;13.60;99.90;;;;;;5138033;27;20802;-65
2023/08/09 00:43:19;;;;;;;2.53;1.37;;;13.60;99.90;;;;;;5137632;27;20556;-64
2023/08/09 00:45:48;;;;;;;1.70;1.43;;;13.50;99.90;;;;;;5137614;27;20444;-65
2023/08/09 00:48:15;;;;;;;1.50;1.40;;;13.60;99.90;;;;;;5138934;27;20432;-66
2023/08/09 00:50:42;;;;;;;1.40;1.20;;;13.50;99.90;;;;;;5137488;27;20934;-64
2023/08/09 00:53:09;;;;;;;2.20;1.47;;;13.50;99.90;;;;;;5137692;27;20460;-64
2023/08/09 00:55:36;;;;;;;2.07;1.60;;;13.50;99.90;;;;;;5137420;27;20785;-66
2023/08/09 00:58:02;;;;;;;2.63;1.50;;;13.50;99.90;;;;;;5137588;27;20476;-65
2023/08/09 01:00:29;;;;;;;1.93;1.40;;;13.50;99.90;;;;;;5137658;27;20436;-63
2023/08/09 01:02:57;;;;;;;1.60;1.50;;;13.40;99.90;;;;;;5137663;27;20460;-65
2023/08/09 01:05:30;;;;;;;2.70;1.50;;;13.40;99.90;;;;;;5137376;27;20933;-65
2023/08/09 01:08:04;;;;;;;2.23;1.73;;;13.40;99.90;;;;;;5137577;27;20452;-64
2023/08/09 01:10:39;;;;;;;3.00;1.80;;;13.40;99.90;;;;;;5137168;27;20424;-64
2023/08/09 01:13:08;;;;;;;1.60;1.50;;;13.30;99.90;;;;;;5137406;27;20466;-64
2023/08/09 01:15:36;;;;;;;3.50;1.63;;;13.30;99.90;;;;;;5136994;27;20441;-64
2023/08/09 01:18:06;;;;;;;2.33;1.63;;;13.20;99.90;;;;;;5137444;27;20472;-64
2023/08/09 01:20:36;;;;;;;1.83;1.60;;;13.20;99.90;;;;;;5137474;27;20428;-64
2023/08/09 01:23:04;;;;;;;2.00;1.70;;;13.20;99.90;;;;;;5136982;27;20515;-64
2023/08/09 01:25:33;;;;;;;2.23;1.73;;;13.20;99.90;;;;;;5137337;27;20861;-64
2023/08/09 01:28:03;;;;;;;2.07;1.50;;;13.10;99.90;;;;;;5137255;27;20435;-64
2023/08/09 01:30:30;;;;;;;3.07;1.70;;;13.10;99.90;;;;;;5137397;27;20512;-65
2023/08/09 01:32:57;;;;;;;1.53;1.30;;;13.10;99.90;;;;;;5136878;27;20460;-65
2023/08/09 01:35:26;;;;;;;3.87;1.73;;;13.00;99.90;;;;;;5136847;27;20449;-65
2023/08/09 01:37:59;;;;;;;3.33;1.60;;;13.00;99.90;;;;;;5136949;27;20476;-64
2023/08/09 01:40:27;;;;;;;1.50;1.40;;;12.90;99.90;;;;;;5136229;27;20434;-64
2023/08/09 01:42:56;;;;;;;2.40;1.60;;;12.90;99.90;;;;;;5136748;27;20465;-64
2023/08/09 01:45:23;;;;;;;1.80;1.70;;;12.90;99.90;;;;;;5136710;27;20809;-65
2023/08/09 01:47:50;;;;;;;1.87;1.60;;;12.90;99.90;;;;;;5136696;27;20428;-64
2023/08/09 01:50:19;;;;;;;1.63;1.53;;;12.80;99.90;;;;;;5136722;27;20816;-64
2023/08/09 01:52:46;;;;;;;2.30;1.47;;;12.80;99.90;;;;;;5136884;27;20433;-65
2023/08/09 01:55:17;;;;;;;2.60;2.13;;;12.70;99.90;;;;;;5136721;27;20925;-65
2023/08/09 01:57:43;;;;;;;1.50;1.40;;;12.70;99.90;;;;;;5137012;27;20467;-64
2023/08/09 02:00:15;;;;;;;2.20;1.70;;;12.60;99.90;;;;;;5136997;27;20451;-64
2023/08/09 02:02:42;;;;;;;2.57;1.90;;;12.50;99.90;;;;;;5136830;27;20478;-65
2023/08/09 02:05:09;;;;;;;2.70;2.03;;;12.50;99.90;;;;;;5136513;27;20448;-65
2023/08/09 02:07:36;;;;;;;2.60;1.77;;;12.40;99.90;;;;;;5136400;27;20458;-65
2023/08/09 02:10:03;;;;;;;3.70;1.73;;;12.40;99.90;;;;;;5136014;27;20440;-64
2023/08/09 02:12:30;;;;;;;2.50;1.67;;;12.30;99.90;;;;;;5136087;27;20493;-65
2023/08/09 02:14:57;;;;;;;3.00;1.50;;;12.30;99.90;;;;;;5136683;27;20467;-65
2023/08/09 02:17:25;;;;;;;2.93;2.00;;;12.20;99.90;;;;;;5136578;27;20472;-65
2023/08/09 02:19:53;;;;;;;3.00;1.80;;;12.20;99.90;;;;;;5136783;27;20468;-64
2023/08/09 02:22:20;;;;;;;2.63;1.93;;;12.20;99.90;;;;;;5136530;27;20513;-64
2023/08/09 02:24:47;;;;;;;3.23;2.10;;;12.10;99.90;;;;;;5136461;27;20491;-64
2023/08/09 02:27:14;;;;;;;2.33;2.13;;;12.10;99.90;;;;;;5137016;27;20429;-65
2023/08/09 02:29:41;;;;;;;2.43;2.23;;;12.10;99.90;;;;;;5136554;27;20441;-64
2023/08/09 02:32:07;;;;;;;2.00;1.80;;;12.00;99.90;;;;;;5136573;27;20445;-65
2023/08/09 02:34:36;;;;;;;2.50;2.30;;;12.00;99.90;;;;;;5136084;27;20839;-65
2023/08/09 02:37:04;;;;;;;2.37;2.17;;;12.00;99.90;;;;;;5136972;27;20523;-65
2023/08/09 02:39:31;;;;;;;3.60;2.30;;;12.00;99.90;;;;;;5136704;27;20442;-64
2023/08/09 02:41:58;;;;;;;3.20;2.43;;;11.90;99.90;;;;;;5136456;27;20444;-65
2023/08/09 02:44:25;;;;;;;3.10;2.30;;;11.90;99.90;;;;;;5136451;27;20460;-64
2023/08/09 02:46:52;;;;;;;3.10;2.27;;;11.90;99.90;;;;;;5136642;27;20440;-64
2023/08/09 02:49:18;;;;;;;2.60;2.40;;;11.90;99.90;;;;;;5136406;27;20436;-64
2023/08/09 02:51:46;;;;;;;3.60;2.80;;;11.90;99.90;;;;;;5134630;27;20934;-64
2023/08/09 02:54:13;;;;;;;6.10;2.37;;;11.80;99.90;;;;;;5136389;27;20461;-64
2023/08/09 02:56:40;;;;;;;3.47;2.67;;;11.80;99.90;;;;;;5136212;27;20440;-64
2023/08/09 02:59:07;;;;;;;6.43;2.50;;;11.80;99.90;;;;;;5135962;27;20566;-64
2023/08/09 03:01:33;;;;;;;3.70;2.40;;;11.80;99.90;;;;;;5136037;27;20435;-64
2023/08/09 03:04:00;;;;;;;3.50;2.60;;;11.80;99.90;;;;;;5135987;27;20505;-64
2023/08/09 03:06:27;;;;;;;3.60;2.30;;;11.80;99.90;;;;;;5135994;27;20433;-65
2023/08/09 03:08:54;;;;;;;3.40;2.43;;;11.80;99.90;;;;;;5135839;27;20444;-64
2023/08/09 03:11:22;;;;;;;4.17;3.00;;;11.70;99.90;;;;;;5136066;27;20493;-65
2023/08/09 03:13:49;;;;;;;3.37;2.63;;;11.70;99.90;;;;;;5135834;27;20460;-64
2023/08/09 03:16:15;;;;;;;3.13;2.80;;;11.70;99.90;;;;;;5135498;27;20433;-64
2023/08/09 03:18:42;;;;;;;4.47;2.77;;;11.70;99.90;;;;;;5135723;27;20479;-65
2023/08/09 03:21:09;;;;;;;2.93;2.33;;;11.60;99.90;;;;;;5135533;27;20440;-64
2023/08/09 03:23:36;;;;;;;2.90;2.60;;;11.60;99.90;;;;;;5134886;27;20469;-64
2023/08/09 03:26:05;;;;;;;2.97;2.63;;;11.60;99.90;;;;;;5135222;27;20440;-64
2023/08/09 03:28:33;;;;;;;3.43;2.80;;;11.60;99.90;;;;;;5135353;27;20781;-65
2023/08/09 03:30:59;;;;;;;2.87;2.43;;;11.60;99.90;;;;;;5136003;27;20437;-64
2023/08/09 03:33:27;;;;;;;3.23;2.93;;;11.60;99.90;;;;;;5135151;27;20461;-64
2023/08/09 03:35:53;;;;;;;3.47;3.17;;;11.60;99.90;;;;;;5135068;27;20440;-64
2023/08/09 03:38:20;;;;;;;4.03;3.03;;;11.60;99.90;;;;;;5134783;27;20825;-64
2023/08/09 03:40:47;;;;;;;5.03;3.40;;;11.60;99.90;;;;;;5135266;27;20443;-64
2023/08/09 03:43:15;;;;;;;4.13;2.90;;;11.60;99.90;;;;;;5135352;27;20461;-63
2023/08/09 03:45:42;;;;;;;3.77;3.37;;;11.60;99.90;;;;;;5135183;27;20429;-65
2023/08/09 03:48:08;;;;;;;3.60;3.30;;;11.60;99.90;;;;;;5134851;27;20826;-64
2023/08/09 03:50:35;;;;;;;3.37;2.90;;;11.60;99.90;;;;;;5134932;27;20436;-64
2023/08/09 03:53:02;;;;;;;5.73;3.83;;;11.60;99.90;;;;;;5135125;27;20453;-65
2023/08/09 03:55:29;;;;;;;5.83;3.50;;;11.60;99.90;;;;;;5135525;27;20432;-65
2023/08/09 03:57:56;;;;;;;7.77;4.00;;;11.60;99.90;;;;;;5135291;27;20478;-65
2023/08/09 04:00:26;;;;;;;5.83;4.60;;;11.60;99.90;;;;;;5134324;27;20493;-63
2023/08/09 04:02:53;;;;;;;6.43;4.43;;;11.60;99.90;;;;;;5133776;27;20441;-63
2023/08/09 04:05:19;;;;;;;3.60;3.30;;;11.60;99.90;;;;;;5134107;27;20462;-63
2023/08/09 04:07:46;;;;;;;4.67;4.03;;;11.60;99.90;;;;;;5133986;27;20624;-63
2023/08/09 04:12:06;;;;;;;5.10;3.70;;;11.70;99.90;;;;;;5091253;28;20564;-63
2023/08/09 04:14:34;;;;;;;5.47;4.00;;;11.70;99.90;;;;;;5090500;28;20466;-63
2023/08/09 04:17:00;;;;;;;7.40;4.10;;;11.80;99.90;;;;;;5090703;28;20434;-63
2023/08/09 04:19:27;;;;;;;4.63;4.07;;;11.80;99.90;;;;;;5090513;28;20477;-63
2023/08/09 04:21:54;;;;;;;7.37;5.20;;;11.80;99.90;;;;;;5090318;28;20858;-64
2023/08/09 04:24:21;;;;;;;6.07;4.50;;;11.80;99.90;;;;;;5103065;22;20486;-61
2023/08/09 04:26:48;;;;;;;5.63;4.17;;;11.90;99.90;;;;;;5072026;28;20966;-61
2023/08/09 04:29:17;;;;;;;8.20;4.90;;;12.00;99.90;;;;;;5070117;28;20435;-60
2023/08/09 04:31:44;;;;;;;5.33;4.83;;;12.20;99.90;;;;;;5070264;28;20894;-61
2023/08/09 04:34:11;;;;;;;6.07;4.60;;;12.40;99.90;;;;;;5070048;28;20463;-61
2023/08/09 04:36:38;;;;;;;4.70;3.90;;;12.60;99.90;;;;;;5070324;28;20446;-61
2023/08/09 04:39:08;;;;;;;6.33;4.70;;;12.80;99.90;;;;;;5069858;28;20473;-62
2023/08/09 04:41:35;;;;;;;6.30;4.80;;;12.90;99.90;;;;;;5070198;28;20526;-62
2023/08/09 04:44:02;;;;;;;4.00;3.60;;;12.90;99.90;;;;;;5069784;28;20455;-61
2023/08/09 04:46:30;;;;;;;5.00;3.97;;;12.90;99.90;;;;;;5069611;28;20964;-61
2023/08/09 04:48:59;;;;;;;6.13;4.67;;;12.80;99.90;;;;;;5069688;28;20936;-62
2023/08/09 04:51:26;;;;;;;7.13;4.43;;;12.80;99.90;;;;;;5069752;28;20498;-60
2023/08/09 04:53:53;;;;;;;8.47;4.93;;;12.70;99.90;;;;;;5069907;28;20514;-61
2023/08/09 04:56:20;;;;;;;5.10;4.20;;;12.60;99.90;;;;;;5069772;28;20439;-62
2023/08/09 04:58:47;;;;;;;4.77;4.20;;;12.60;99.90;;;;;;5069726;28;20439;-61
2023/08/09 05:01:13;;;;;;;5.80;4.97;;;12.50;99.90;;;;;;5069696;28;20453;-62
2023/08/09 05:03:41;;;;;;;5.70;5.03;;;12.50;99.90;;;;;;5069657;28;20459;-61
2023/08/09 05:06:09;;;;;;;5.40;4.60;;;12.60;99.90;;;;;;5079815;28;20538;-61
2023/08/09 05:08:36;;;;;;;6.53;5.50;;;12.70;99.90;;;;;;5079624;28;20449;-62
2023/08/09 05:11:02;;;;;;;6.87;4.97;;;12.90;99.90;;;;;;5069765;28;20478;-62
2023/08/09 05:13:29;;;;;;;6.97;5.00;;;13.00;99.90;;;;;;5069562;28;20463;-61
2023/08/09 05:15:56;;;;;;;5.90;4.90;;;13.10;99.90;;;;;;5069375;28;20945;-62
2023/08/09 05:18:23;;;;;;;5.27;4.43;;;13.20;99.90;;;;;;5069941;28;20972;-61
2023/08/09 05:20:51;;;;;;;5.27;4.17;;;13.30;99.90;;;;;;5069570;28;20439;-62
2023/08/09 05:23:18;;;;;;;5.93;4.73;;;13.50;99.90;;;;;;5057090;28;20472;-60
2023/08/09 05:25:44;;;;;;;5.60;5.00;;;13.70;99.90;;;;;;5056589;28;20449;-63
2023/08/09 05:28:11;;;;;;;5.00;4.53;;;13.90;99.90;;;;;;5056375;28;20440;-61
2023/08/09 05:30:38;;;;;;;6.30;4.60;;;14.10;99.90;;;;;;5055983;28;20483;-61
2023/08/09 05:33:05;;;;;;;9.10;4.07;;;14.30;99.90;;;;;;5055944;28;20451;-62
2023/08/09 05:35:32;;;;;;;4.90;4.17;;;14.40;99.90;;;;;;5056057;28;20447;-62
2023/08/09 05:38:00;;;;;;;4.50;3.90;;;14.50;99.90;;;;;;5056181;28;20442;-60
2023/08/09 05:40:26;;;;;;;5.93;4.33;;;14.60;99.90;;;;;;5055550;28;20816;-61
2023/08/09 05:42:53;;;;;;;4.17;3.80;;;14.70;99.90;;;;;;5056299;28;20455;-61
2023/08/09 05:45:20;;;;;;;4.73;3.80;;;14.80;99.90;;;;;;5056576;28;20819;-61
2023/08/09 05:47:47;;;;;;;7.00;3.67;;;14.90;99.90;;;;;;5056496;28;20809;-61
2023/08/09 05:50:15;;;;;;;4.77;3.30;;;14.90;99.90;;;;;;5056346;28;20527;-61
2023/08/09 05:52:42;;;;;;;4.70;4.03;;;14.90;99.90;;;;;;5056722;28;20545;-60
2023/08/09 05:55:10;;;;;;;5.03;3.67;;;14.90;99.90;;;;;;5056194;28;20510;-62
2023/08/09 05:57:37;;;;;;;4.23;3.70;;;14.90;99.90;;;;;;5056343;28;20804;-61
2023/08/09 06:00:04;;;;;;;6.90;4.20;;;14.80;99.90;;;;;;5055768;28;20439;-61
2023/08/09 06:02:33;;;;;;;3.83;3.40;;;14.80;99.90;;;;;;5056001;28;20439;-62
2023/08/09 06:04:59;;;;;;;5.43;3.60;;;14.70;99.90;;;;;;5055142;28;20559;-61
2023/08/09 06:07:27;;;;;;;4.47;4.07;;;14.70;99.90;;;;;;5054817;28;20442;-61
2023/08/09 06:09:54;;;;;;;5.83;3.90;;;14.70;99.90;;;;;;5055252;28;20558;-62
2023/08/09 06:12:22;;;;;;;5.30;3.90;;;14.70;99.90;;;;;;5055131;28;20483;-62
2023/08/09 06:14:49;;;;;;;6.40;3.70;;;14.70;99.90;;;;;;5055139;28;20463;-61
2023/08/09 06:17:15;;;;;;;4.00;3.60;;;14.80;99.90;;;;;;5055526;28;20569;-61
2023/08/09 06:19:43;;;;;;;3.90;3.40;;;14.70;99.90;;;;;;5056210;28;20455;-62
2023/08/09 06:22:09;;;;;;;3.50;3.20;;;14.70;99.90;;;;;;5054856;28;20449;-61
2023/08/09 06:24:36;;;;;;;6.73;3.80;;;14.70;99.90;;;;;;5054828;28;20472;-61
2023/08/09 06:27:03;;;;;;;5.97;3.73;;;14.80;99.90;;;;;;5054989;28;20447;-61
2023/08/09 06:29:33;;;;;;;4.63;3.10;;;14.80;99.90;;;;;;5055039;28;20520;-61
2023/08/09 06:31:59;;;;;;;4.63;2.87;;;14.90;99.90;;;;;;5054706;28;20504;-62
2023/08/09 06:34:26;;;;;;;3.00;2.77;;;15.00;99.90;;;;;;5053760;28;20491;-61
2023/08/09 06:36:54;;;;;;;5.00;2.80;;;15.00;99.90;;;;;;5055110;28;20499;-62
2023/08/09 06:39:21;;;;;;;3.00;2.70;;;15.00;99.90;;;;;;5055427;28;20849;-61
2023/08/09 06:41:49;;;;;;;3.80;3.07;;;15.10;99.90;;;;;;5054562;28;20472;-61
2023/08/09 06:44:16;;;;;;;3.90;2.57;;;15.10;99.90;;;;;;5054601;28;20845;-62
2023/08/09 06:46:44;;;;;;;4.63;2.50;;;15.10;99.90;;;;;;5054443;28;20514;-62
2023/08/09 06:49:11;;;;;;;7.17;3.00;;;15.20;99.90;;;;;;5053999;28;20515;-61
2023/08/09 06:51:38;;;;;;;3.30;2.90;;;15.30;99.90;;;;;;5054684;28;20484;-61
2023/08/09 06:54:05;;;;;;;4.33;2.97;;;15.20;99.90;;;;;;5054863;28;20464;-61
2023/08/09 06:56:32;;;;;;;4.57;2.70;;;15.30;99.90;;;;;;5054401;28;20440;-61
2023/08/09 06:58:59;;;;;;;4.63;2.27;;;15.40;99.90;;;;;;5054576;28;20809;-62
2023/08/09 07:01:26;;;;;;;6.57;2.80;;;15.50;99.90;;;;;;5054703;28;20461;-62
2023/08/09 07:03:54;;;;;;;5.00;2.60;;;15.50;99.90;;;;;;5054495;28;20463;-61
2023/08/09 07:06:20;;;;;;;3.93;1.87;;;15.60;99.90;;;;;;5054509;28;20452;-61
2023/08/09 07:08:47;;;;;;;6.20;3.00;;;15.60;99.90;;;;;;5054420;28;20441;-62
2023/08/09 07:11:14;;;;;;;2.53;1.90;;;15.70;99.90;;;;;;5054026;28;20480;-63
2023/08/09 07:13:41;;;;;;;3.60;2.23;;;15.70;99.90;;;;;;5054131;28;20556;-61
2023/08/09 07:16:08;;;;;;;3.60;2.10;;;15.80;99.90;;;;;;5053925;28;20452;-60
2023/08/09 07:18:34;;;;;;;5.20;2.23;;;15.90;99.90;;;;;;5053618;28;20495;-62
2023/08/09 07:21:03;;;;;;;7.07;2.17;;;15.90;99.90;;;;;;5053849;28;20437;-61
2023/08/09 07:23:29;;;;;;;3.27;2.40;;;16.10;99.90;;;;;;5054308;28;20489;-62
2023/08/09 07:25:56;;;;;;;2.63;2.00;;;16.20;99.90;;;;;;5054677;28;20429;-62
2023/08/09 07:28:23;;;;;;;4.07;2.40;;;16.30;99.90;;;;;;5054329;28;20445;-62
2023/08/09 07:30:51;;;;;;;5.60;2.60;;;16.30;99.90;;;;;;5053714;28;20449;-61
2023/08/09 07:33:20;;;;;;;3.43;2.10;;;16.30;99.90;;;;;;5054015;28;20459;-62
2023/08/09 07:35:48;;;;;;;2.47;2.00;;;16.40;99.90;;;;;;5053943;28;20499;-62
2023/08/09 07:38:16;;;;;;;6.17;2.30;;;16.40;99.90;;;;;;5053680;28;20490;-60
2023/08/09 07:40:43;;;;;;;2.30;2.10;;;16.40;99.90;;;;;;5053540;28;20507;-61
2023/08/09 07:43:10;;;;;;;2.30;2.03;;;16.50;99.90;;;;;;5053187;28;20533;-62
2023/08/09 07:45:37;;;;;;;4.30;1.70;;;16.70;99.90;;;;;;5053714;28;20442;-61
2023/08/09 07:48:04;;;;;;;3.20;1.97;;;16.80;99.90;;;;;;5054031;28;20450;-61
2023/08/09 07:50:31;;;;;;;4.80;1.73;;;16.90;99.90;;;;;;5053848;28;20442;-62
2023/08/09 07:52:57;;;;;;;3.30;1.87;;;16.90;99.90;;;;;;5053384;28;20487;-62
2023/08/09 07:55:26;;;;;;;3.73;1.80;;;17.00;99.90;;;;;;5053366;28;20453;-61
2023/08/09 07:57:53;;;;;;;4.30;1.83;;;17.00;99.90;;;;;;5053854;28;20465;-60
2023/08/09 08:00:20;;;;;;;4.17;2.57;;;17.10;99.90;;;;;;5055561;28;20452;-62
2023/08/09 08:02:47;;;;;;;3.83;1.80;;;17.10;99.90;;;;;;5055762;28;20443;-63
2023/08/09 08:05:15;;;;;;;2.43;1.53;;;17.20;99.90;;;;;;5056116;28;20463;-62
2023/08/09 08:07:44;;;;;;;4.60;1.97;;;17.30;99.90;;;;;;5057231;28;20452;-61
2023/08/09 08:10:15;;;;;;;1.70;1.60;;;17.30;99.80;;;;;;5057944;28;20450;-62
2023/08/09 08:12:44;;;;;;;2.73;2.47;;;17.30;98.90;;;;;;5055769;28;20495;-62
2023/08/09 08:15:12;;;;;;;2.80;1.63;;;17.40;98.20;;;;;;5054959;28;20464;-62
2023/08/09 08:17:39;;;;;;;2.73;1.40;;;17.40;97.80;;;;;;5056188;28;20450;-64
2023/08/09 08:20:10;;;;;;;3.70;1.80;;;17.50;97.80;;;;;;5054284;28;20443;-62
2023/08/09 08:22:37;;;;;;;3.23;1.60;;;17.60;97.40;;;;;;5053939;28;20428;-63
2023/08/09 08:25:05;;;;;;;5.23;1.90;;;17.70;96.70;;;;;;5053157;28;20479;-63
2023/08/09 08:27:34;;;;;;;5.90;1.80;;;17.70;95.90;;;;;;5054027;28;20952;-62
2023/08/09 08:30:04;;;;;;;2.87;1.40;;;17.80;95.20;;;;;;5053753;28;20447;-63
2023/08/09 08:32:31;;;;;;;2.10;1.47;;;18.00;94.40;;;;;;5053478;28;20538;-61
2023/08/09 08:35:00;;;;;;;1.53;1.43;;;18.10;93.40;;;;;;5053643;28;20461;-62
2023/08/09 08:37:27;;;;;;;2.10;1.67;;;18.20;91.50;;;;;;5053121;28;20877;-62
2023/08/09 08:39:53;;;;;;;4.10;1.20;;;18.30;90.70;;;;;;5053657;28;20867;-62
2023/08/09 08:42:20;;;;;;;1.67;1.30;;;18.40;89.80;;;;;;5053338;28;20450;-61
2023/08/09 08:44:47;;;;;;;4.17;1.70;;;18.40;89.20;;;;;;5053003;28;20465;-62
2023/08/09 08:47:16;;;;;;;6.97;1.80;;;18.30;89.20;;;;;;5053500;28;20444;-60
2023/08/09 08:49:49;;;;;;;2.50;1.47;;;18.40;88.10;;;;;;5053561;28;20454;-62
2023/08/09 08:52:17;;;;;;;1.67;1.40;;;18.40;87.60;;;;;;5053577;28;20464;-61
2023/08/09 08:54:43;;;;;;;1.87;1.53;;;18.40;86.30;;;;;;5054064;28;20468;-62
2023/08/09 08:57:10;;;;;;;2.07;1.30;;;18.50;84.90;;;;;;5054422;28;20447;-62
2023/08/09 08:59:37;;;;;;;2.30;1.20;;;18.60;83.30;;;;;;5057078;28;20965;-62
2023/08/09 09:02:04;;;;;;;3.40;1.77;;;18.80;82.30;;;;;;5057801;28;20445;-62
2023/08/09 09:04:32;;;;;;;6.23;1.77;;;18.90;81.30;;;;;;5058437;28;20880;-62
2023/08/09 09:06:59;;;;;;;2.10;1.17;;;18.90;80.50;;;;;;5058780;28;20553;-63
2023/08/09 09:09:26;;;;;;;3.50;1.53;;;18.80;79.40;;;;;;5058102;28;20812;-63
2023/08/09 09:11:53;;;;;;;3.00;1.30;;;18.60;79.20;;;;;;5057470;28;20503;-61
2023/08/09 09:14:20;;;;;;;2.00;1.60;;;18.40;79.60;;;;;;5057479;28;20464;-61
2023/08/09 09:16:49;;;;;;;3.23;1.57;;;18.40;80.50;;;;;;5057760;28;20440;-62
2023/08/09 09:19:16;;;;;;;7.50;1.30;;;18.60;80.00;;;;;;5057501;28;20443;-63
2023/08/09 09:21:44;;;;;;;3.07;1.57;;;18.80;78.60;;;;;;5057281;28;20448;-63
2023/08/09 09:24:11;;;;;;;5.20;1.80;;;18.80;77.40;;;;;;5055916;28;20479;-63
2023/08/09 09:26:39;;;;;;;3.03;1.20;;;18.80;77.10;;;;;;5057184;28;20509;-62
2023/08/09 09:29:08;;;;;;;2.20;0.90;;;18.60;74.90;;;;;;5056759;28;20476;-63
2023/08/09 09:31:39;;;;;;;2.93;1.10;;;18.60;74.30;;;;;;5056614;28;21009;-62
2023/08/09 09:34:07;;;;;;;3.37;1.20;;;18.90;73.20;;;;;;5059497;28;20555;-64
2023/08/09 09:36:38;;;;;;;1.50;0.90;;;19.30;71.60;;;;;;5059033;28;20444;-62
2023/08/09 09:39:10;;;;;;;1.60;1.20;;;19.70;69.80;;;;;;5056570;28;20471;-63
2023/08/09 09:41:37;;;;;;;3.10;1.20;;;19.80;66.70;;;;;;5055597;28;20910;-60
2023/08/09 09:44:04;;;;;;;4.27;1.20;;;19.60;66.30;;;;;;5055915;28;20464;-62
2023/08/09 09:46:31;;;;;;;2.63;1.40;;;19.40;66.60;;;;;;5056329;28;20450;-63
2023/08/09 09:49:01;;;;;;;2.40;1.30;;;19.10;67.40;;;;;;5057202;28;20452;-62
2023/08/09 09:51:28;;;;;;;3.90;1.10;;;19.20;67.90;;;;;;5056985;28;20441;-65
2023/08/09 09:53:55;;;;;;;2.00;1.13;;;19.50;66.30;;;;;;5056684;28;20551;-62
2023/08/09 09:56:23;;;;;;;2.03;1.00;;;19.70;63.30;;;;;;5056673;28;20469;-63
2023/08/09 09:58:50;;;;;;;3.37;1.03;;;19.80;62.60;;;;;;5056643;28;20452;-64
2023/08/09 10:01:20;;;;;;;2.53;1.07;;;19.90;62.70;;;;;;5055671;28;20899;-62
2023/08/09 10:03:49;;;;;;;2.73;1.50;;;20.10;62.30;;;;;;5056760;28;20456;-63
2023/08/09 10:06:21;;;;;;;2.63;0.90;;;20.20;61.60;;;;;;5057237;28;20457;-62
2023/08/09 10:08:51;;;;;;;4.60;1.33;;;20.40;60.50;;;;;;5056945;28;20795;-62
2023/08/09 10:11:20;;;;;;;1.90;0.93;;;20.60;59.40;;;;;;5056180;28;20532;-63
2023/08/09 10:13:49;;;;;;;2.30;1.07;;;20.70;58.60;;;;;;5055670;28;20482;-62
2023/08/09 10:16:20;;;;;;;1.10;0.87;;;20.60;58.00;;;;;;5056366;28;20965;-62
2023/08/09 10:18:52;;;;;;;4.20;1.13;;;20.40;57.80;;;;;;5057070;28;20431;-63
2023/08/09 10:21:19;;;;;;;1.53;0.97;;;20.30;57.60;;;;;;5056714;28;20855;-61
2023/08/09 10:23:55;;;;;;;3.93;1.43;;;20.30;56.70;;;;;;5056346;28;20936;-64
2023/08/09 10:26:28;;;;;;;2.30;1.27;;;20.40;56.20;;;;;;5056718;28;20476;-62
2023/08/09 10:29:04;;;;;;;2.10;0.97;;;20.40;55.90;;;;;;5056007;28;20431;-62
2023/08/09 10:31:52;;;;;;;2.70;1.27;;;20.50;55.80;;;;;;5055570;28;20424;-63
2023/08/09 10:34:20;;;;;;;2.03;1.30;;;20.80;55.50;;;;;;5056151;28;20758;-61
2023/08/09 10:36:53;;;;;;;2.10;1.13;;;20.90;54.60;;;;;;5055877;28;20436;-63
2023/08/09 10:39:20;;;;;;;1.70;1.20;;;20.80;54.60;;;;;;5056970;28;20449;-65
2023/08/09 10:42:06;;;;;;;2.50;1.90;;;20.80;53.80;;;;;;5056911;28;20455;-62
2023/08/09 10:44:44;;;;;;;2.53;1.00;;;20.90;53.40;;;;;;5055913;28;20456;-64
2023/08/09 10:47:13;;;;;;;2.40;1.10;;;21.20;53.40;;;;;;5056459;28;20427;-63
2023/08/09 10:49:59;;;;;;;2.50;1.20;;;21.10;53.20;;;;;;5054972;28;20490;-63
2023/08/09 10:52:31;;;;;;;2.00;1.00;;;21.00;53.30;;;;;;5055190;28;20559;-62
2023/08/09 10:55:25;;;;;;;2.03;1.30;;;21.00;53.40;;;;;;5055232;28;20468;-62
2023/08/09 10:57:54;;;;;;;3.37;1.10;;;21.10;52.90;;;;;;5054783;28;20448;-62
2023/08/09 11:00:23;;;;;;;3.70;1.20;;;21.40;52.50;;;;;;5055058;28;20472;-62
2023/08/09 11:02:52;;;;;;;1.70;1.30;;;21.60;52.20;;;;;;5055376;28;20505;-63
2023/08/09 11:05:20;;;;;;;2.03;0.97;;;21.60;51.80;;;;;;5054885;28;20971;-63
2023/08/09 11:07:49;;;;;;;1.90;1.10;;;21.60;51.30;;;;;;5055674;28;20447;-63
2023/08/09 11:10:16;;;;;;;1.50;1.23;;;21.60;50.60;;;;;;5056229;28;20479;-62
2023/08/09 11:12:44;;;;;;;2.60;1.40;;;21.80;50.50;;;;;;5057343;28;20484;-63
2023/08/09 11:15:12;;;;;;;1.87;0.93;;;22.00;49.90;;;;;;5057654;28;20469;-63
2023/08/09 11:17:49;;;;;;;2.17;1.10;;;22.10;48.80;;;;;;5057681;28;20443;-62
2023/08/09 11:20:19;;;;;;;1.40;1.00;;;22.20;47.70;;;;;;5057157;28;20471;-62
2023/08/09 11:22:46;;;;;;;3.43;1.27;;;22.20;47.60;;;;;;5057333;28;20440;-63
2023/08/09 11:25:13;;;;;;;1.60;1.17;;;22.30;47.60;;;;;;5056925;28;20471;-61
2023/08/09 11:27:40;;;;;;;1.40;1.23;;;22.30;47.70;;;;;;5055725;28;20449;-62
2023/08/09 11:30:09;;;;;;;2.13;1.00;;;22.20;47.60;;;;;;5055304;28;20496;-62
2023/08/09 11:32:36;;;;;;;2.30;1.20;;;21.90;47.70;;;;;;5057466;28;20503;-63
2023/08/09 11:35:05;;;;;;;1.77;1.07;;;21.70;48.00;;;;;;5058023;28;20522;-63
2023/08/09 11:37:31;;;;;;;1.10;0.90;;;21.60;48.20;;;;;;5057677;28;20484;-62
2023/08/09 11:39:58;;;;;;;2.10;1.10;;;21.60;48.10;;;;;;5056591;28;20450;-63
2023/08/09 11:42:25;;;;;;;3.33;1.10;;;21.60;48.00;;;;;;5057375;28;20453;-62
2023/08/09 11:44:52;;;;;;;1.80;0.93;;;21.70;48.10;;;;;;5056079;28;20830;-63
2023/08/09 11:47:19;;;;;;;1.93;1.43;;;21.80;47.50;;;;;;5054924;28;20831;-62
2023/08/09 11:49:45;;;;;;;2.07;1.20;;;22.00;47.20;;;;;;5055401;28;20509;-62
2023/08/09 11:52:17;;;;;;;1.20;0.80;;;22.10;46.60;;;;;;5056852;28;20478;-62
2023/08/09 11:54:44;;;;;;;1.90;0.70;;;22.30;46.00;;;;;;5059284;28;20465;-63
2023/08/09 11:57:11;;;;;;;2.20;1.00;;;22.70;45.40;;;;;;5057452;28;20452;-60
2023/08/09 11:59:40;;;;;;;1.70;1.10;;;23.00;44.20;;;;;;5058348;28;20451;-62
2023/08/09 12:02:07;;;;;;;1.10;0.70;;;23.00;43.90;;;;;;5058518;28;20792;-64
2023/08/09 12:04:34;;;;;;;1.33;1.23;;;22.60;44.00;;;;;;5057206;28;20552;-63
2023/08/09 12:07:05;;;;;;;2.40;1.50;;;22.40;44.60;;;;;;5057023;28;20443;-62
2023/08/09 12:09:35;;;;;;;1.50;1.10;;;22.70;44.50;;;;;;5056913;28;20475;-61
2023/08/09 12:12:07;;;;;;;1.80;1.20;;;22.80;44.10;;;;;;5057206;28;20430;-62
2023/08/09 12:14:36;;;;;;;1.10;0.90;;;23.20;43.50;;;;;;5056069;28;20465;-62
2023/08/09 12:17:03;;;;;;;3.37;1.40;;;23.50;42.10;;;;;;5054903;28;20951;-62
2023/08/09 12:19:30;;;;;;;1.00;0.90;;;23.80;41.60;;;;;;5054456;28;20454;-62
2023/08/09 12:21:58;;;;;;;1.97;0.90;;;23.80;41.10;;;;;;5054818;28;20442;-63
2023/08/09 12:24:24;;;;;;;3.07;1.00;;;23.60;41.60;;;;;;5055656;28;20474;-63
2023/08/09 12:26:53;;;;;;;1.20;0.70;;;23.50;41.40;;;;;;5055215;28;20914;-62
2023/08/09 12:29:20;;;;;;;2.17;0.90;;;23.90;41.10;;;;;;5055181;28;20478;-64
2023/08/09 12:31:46;;;;;;;2.83;1.07;;;24.30;40.30;;;;;;5055400;28;20448;-62
2023/08/09 12:34:13;;;;;;;1.10;1.00;;;24.30;39.90;;;;;;5058448;28;20505;-62
2023/08/09 12:36:40;;;;;;;1.83;1.23;;;23.90;40.60;;;;;;5058730;28;20511;-61
2023/08/09 12:39:10;;;;;;;1.80;0.90;;;23.40;41.30;;;;;;5058306;28;20450;-62
2023/08/09 12:41:37;;;;;;;2.10;1.00;;;22.80;42.20;;;;;;5058939;28;20441;-64
2023/08/09 12:44:07;;;;;;;1.40;0.80;;;22.40;43.00;;;;;;5059383;28;20454;-62
2023/08/09 12:46:33;;;;;;;1.83;1.00;;;22.20;43.40;;;;;;5058617;28;20506;-61
2023/08/09 12:49:00;;;;;;;1.20;1.00;;;22.30;43.30;;;;;;5058678;28;20809;-63
2023/08/09 12:51:27;;;;;;;1.47;0.90;;;22.30;43.10;;;;;;5058138;28;20445;-64
2023/08/09 12:53:54;;;;;;;2.27;1.03;;;22.20;42.90;;;;;;5057576;28;20491;-63